createdAt,value
2018-08-24T00:03:15.269Z,24.40
2018-08-24T00:08:16.385Z,24.50
2018-08-24T00:10:47.109Z,24.50
2018-08-24T00:15:48.228Z,24.40
2018-08-24T00:18:19.208Z,24.40
2018-08-24T00:20:49.874Z,24.40
2018-08-24T00:23:20.385Z,24.30
2018-08-24T00:25:52.009Z,24.30
2018-08-24T00:28:22.466Z,24.30
2018-08-24T00:30:53.507Z,24.30
2018-08-24T00:33:24.483Z,24.30
2018-08-24T00:35:54.946Z,24.20
2018-08-24T00:38:26.310Z,24.20
2018-08-24T00:40:57.346Z,24.20
2018-08-24T00:43:27.849Z,24.20
2018-08-24T00:45:58.909Z,24.20
2018-08-24T00:48:29.508Z,24.10
2018-08-24T00:51:00.172Z,24.10
2018-08-24T00:53:30.610Z,24.10
2018-08-24T00:56:00.709Z,24.10
2018-08-24T00:58:31.373Z,24.10
2018-08-24T01:01:02.148Z,24.00
2018-08-24T01:03:33.517Z,23.90
2018-08-24T01:11:05.030Z,23.90
2018-08-24T01:16:05.511Z,23.80
2018-08-24T01:18:41.361Z,23.70
2018-08-24T01:23:42.480Z,23.70
2018-08-24T01:26:14.528Z,23.70
2018-08-24T01:28:45.510Z,23.60
2018-08-24T01:31:15.843Z,23.60
2018-08-24T01:33:46.244Z,23.50
2018-08-24T01:36:17.987Z,23.50
2018-08-24T01:38:49.637Z,23.50
2018-08-24T01:41:20.366Z,23.40
2018-08-24T01:43:51.434Z,23.40
2018-08-24T01:46:21.831Z,23.40
2018-08-24T01:48:52.552Z,23.30
2018-08-24T01:51:24.225Z,23.30
2018-08-24T01:53:54.894Z,23.30
2018-08-24T01:56:25.921Z,23.30
2018-08-24T01:58:56.673Z,23.20
2018-08-24T02:01:27.748Z,23.20
2018-08-24T02:03:58.909Z,23.20
2018-08-24T02:06:30.127Z,23.20
2018-08-24T02:09:01.840Z,23.10
2018-08-24T02:11:34.473Z,23.10
2018-08-24T02:14:10.583Z,23.10
2018-08-24T02:16:42.945Z,23.10
2018-08-24T02:19:17.190Z,23.10
2018-08-24T02:21:53.031Z,23.00
2018-08-24T02:24:23.748Z,23.00
2018-08-24T02:26:54.147Z,22.90
2018-08-24T02:29:24.815Z,22.90
2018-08-24T02:31:55.308Z,22.90
2018-08-24T02:34:26.317Z,22.90
2018-08-24T02:36:56.974Z,22.90
2018-08-24T02:39:28.067Z,22.80
2018-08-24T02:41:58.468Z,22.80
2018-08-24T02:44:29.571Z,22.80
2018-08-24T02:47:00.502Z,22.80
2018-08-24T02:49:30.951Z,22.80
2018-08-24T02:52:01.615Z,22.80
2018-08-24T02:54:32.863Z,22.70
2018-08-24T02:57:03.049Z,22.60
2018-08-24T02:59:33.829Z,22.60
2018-08-24T03:02:04.546Z,22.10
2018-08-24T03:04:35.284Z,22.00
2018-08-24T03:07:05.986Z,22.10
2018-08-24T03:09:36.322Z,22.10
2018-08-24T03:12:07.105Z,22.10
2018-08-24T03:14:38.687Z,22.20
2018-08-24T03:17:13.989Z,22.10
2018-08-24T03:19:44.964Z,22.10
2018-08-24T03:22:15.747Z,22.10
2018-08-24T03:24:47.427Z,22.10
2018-08-24T03:29:48.230Z,22.10
2018-08-24T03:32:18.885Z,22.00
2018-08-24T03:34:50.632Z,21.90
2018-08-24T03:37:21.255Z,21.90
2018-08-24T03:39:52.014Z,21.90
2018-08-24T03:42:23.241Z,21.90
2018-08-24T03:47:23.853Z,21.90
2018-08-24T03:49:53.988Z,22.00
2018-08-24T03:52:24.337Z,22.00
2018-08-24T03:54:55.427Z,22.00
2018-08-24T03:57:25.825Z,21.90
2018-08-24T03:59:56.228Z,21.90
2018-08-24T04:02:28.230Z,21.80
2018-08-24T04:04:58.955Z,21.80
2018-08-24T04:07:29.648Z,21.90
2018-08-24T04:10:00.400Z,21.80
2018-08-24T04:12:31.124Z,21.90
2018-08-24T04:15:01.831Z,21.90
2018-08-24T04:17:37.350Z,22.00
2018-08-24T04:20:08.708Z,22.00
2018-08-24T04:22:39.389Z,22.00
2018-08-24T04:25:10.787Z,22.00
2018-08-24T04:27:42.217Z,22.00
2018-08-24T04:30:13.193Z,22.10
2018-08-24T04:32:44.545Z,22.00
2018-08-24T04:35:14.957Z,22.00
2018-08-24T04:37:46.055Z,22.00
2018-08-24T04:40:17.230Z,22.00
2018-08-24T04:42:48.335Z,22.00
2018-08-24T04:45:18.790Z,22.10
2018-08-24T04:47:50.475Z,22.10
2018-08-24T04:50:22.153Z,22.10
2018-08-24T04:52:54.470Z,22.20
2018-08-24T04:55:25.195Z,22.20
2018-08-24T05:00:26.311Z,22.30
2018-08-24T05:02:57.349Z,22.20
2018-08-24T05:05:28.035Z,22.20
2018-08-24T05:07:59.871Z,22.20
2018-08-24T05:10:31.751Z,22.20
2018-08-24T05:13:02.437Z,22.20
2018-08-24T05:15:33.995Z,22.10
2018-08-24T05:18:05.181Z,22.10
2018-08-24T05:20:35.865Z,22.10
2018-08-24T05:23:07.589Z,22.20
2018-08-24T05:25:37.995Z,22.30
2018-08-24T05:28:08.768Z,22.30
2018-08-24T05:30:39.428Z,22.40
2018-08-24T05:33:11.346Z,22.50
2018-08-24T05:35:42.529Z,22.60
2018-08-24T05:38:12.804Z,22.80
2018-08-24T05:40:43.225Z,22.90
2018-08-24T05:43:13.998Z,23.00
2018-08-24T05:45:44.399Z,23.10
2018-08-24T05:48:15.134Z,23.30
2018-08-24T05:50:45.711Z,23.40
2018-08-24T05:53:16.764Z,23.40
2018-08-24T05:55:47.185Z,23.60
2018-08-24T05:58:17.873Z,23.70
2018-08-24T06:00:48.289Z,23.80
2018-08-24T06:03:19.000Z,24.00
2018-08-24T06:05:54.571Z,24.10
2018-08-24T06:08:24.889Z,24.30
2018-08-24T06:10:55.379Z,24.40
2018-08-24T06:13:26.369Z,24.50
2018-08-24T06:15:57.147Z,24.80
2018-08-24T06:18:28.750Z,24.80
2018-08-24T06:20:59.469Z,24.80
2018-08-24T06:23:30.187Z,24.90
2018-08-24T06:26:00.911Z,25.00
2018-08-24T06:28:31.053Z,25.10
2018-08-24T06:31:02.410Z,25.20
2018-08-24T06:33:32.749Z,25.20
2018-08-24T06:36:03.210Z,25.20
2018-08-24T06:38:33.933Z,25.30
2018-08-24T06:41:03.897Z,25.40
2018-08-24T06:43:34.686Z,25.40
2018-08-24T06:46:05.392Z,25.50
2018-08-24T06:48:35.796Z,25.50
2018-08-24T06:51:06.513Z,25.60
2018-08-24T06:53:36.952Z,25.60
2018-08-24T06:56:06.970Z,25.60
2018-08-24T06:58:37.327Z,25.60
2018-08-24T07:01:07.794Z,25.60
2018-08-24T07:03:37.883Z,25.80
2018-08-24T07:08:38.673Z,26.00
2018-08-24T07:11:09.383Z,26.20
2018-08-24T07:13:39.243Z,26.40
2018-08-24T07:16:09.079Z,26.40
2018-08-24T07:18:39.198Z,26.50
2018-08-24T07:21:09.505Z,26.60
2018-08-24T07:23:39.455Z,26.70
2018-08-24T07:26:09.144Z,26.80
2018-08-24T07:28:39.535Z,26.70
2018-08-24T07:31:09.854Z,26.70
2018-08-24T07:33:39.954Z,26.70
2018-08-24T07:36:10.467Z,26.70
2018-08-24T07:38:40.266Z,26.60
2018-08-24T07:41:11.563Z,26.50
2018-08-24T07:43:41.518Z,26.40
2018-08-24T07:46:11.359Z,26.20
2018-08-24T07:48:42.191Z,26.00
2018-08-24T07:51:12.277Z,25.90
2018-08-24T07:53:42.990Z,25.60
2018-08-24T07:56:13.729Z,25.60
2018-08-24T07:58:44.433Z,25.40
2018-08-24T08:01:14.871Z,25.00
2018-08-24T08:03:45.290Z,25.00
2018-08-24T08:06:16.335Z,24.90
2018-08-24T08:08:47.322Z,25.00
2018-08-24T08:11:17.728Z,25.10
2018-08-24T08:13:48.119Z,25.10
2018-08-24T08:16:18.512Z,25.10
2018-08-24T08:18:49.238Z,24.80
2018-08-24T08:21:19.953Z,24.80
2018-08-24T08:23:50.383Z,24.80
2018-08-24T08:26:20.755Z,24.80
2018-08-24T08:28:51.160Z,24.90
2018-08-24T08:31:21.883Z,24.60
2018-08-24T08:33:52.284Z,24.60
2018-08-24T08:36:22.025Z,24.60
2018-08-24T08:38:51.979Z,24.70
2018-08-24T08:41:21.835Z,24.70
2018-08-24T08:43:52.819Z,24.80
2018-08-24T08:46:22.790Z,24.90
2018-08-24T08:48:53.523Z,25.00
2018-08-24T08:51:23.446Z,25.10
2018-08-24T08:53:53.404Z,25.20
2018-08-24T08:56:23.425Z,25.30
2018-08-24T08:58:53.262Z,25.50
2018-08-24T09:01:23.418Z,25.60
2018-08-24T09:03:53.316Z,25.60
2018-08-24T09:06:23.365Z,25.70
2018-08-24T09:08:54.505Z,25.80
2018-08-24T09:11:24.474Z,26.00
2018-08-24T09:13:54.409Z,26.00
2018-08-24T09:16:25.294Z,26.00
2018-08-24T09:19:00.434Z,26.20
2018-08-24T09:21:35.325Z,26.30
2018-08-24T09:25:12.932Z,26.50
2018-08-24T09:27:48.502Z,26.60
2018-08-24T09:30:19.803Z,26.60
2018-08-24T09:32:50.333Z,26.70
2018-08-24T09:35:20.079Z,26.60
2018-08-24T09:37:49.948Z,26.50
2018-08-24T09:40:23.906Z,26.60
2018-08-24T09:43:07.674Z,26.50
2018-08-24T09:45:38.197Z,26.70
2018-08-24T09:48:13.815Z,26.70
2018-08-24T09:50:49.887Z,26.70
2018-08-24T09:53:25.398Z,26.90
2018-08-24T09:55:55.408Z,26.90
2018-08-24T09:58:25.345Z,26.90
2018-08-24T10:01:01.677Z,26.80
2018-08-24T10:03:36.346Z,26.80
2018-08-24T10:06:11.210Z,26.90
2018-08-24T10:08:46.058Z,26.80
2018-08-24T10:11:16.123Z,26.80
2018-08-24T10:13:46.951Z,26.90
2018-08-24T10:16:17.751Z,27.00
2018-08-24T10:18:48.654Z,26.90
2018-08-24T10:21:18.988Z,27.20
2018-08-24T10:23:50.027Z,27.20
2018-08-24T10:26:20.492Z,27.20
2018-08-24T10:28:51.467Z,27.20
2018-08-24T10:31:21.558Z,27.20
2018-08-24T10:33:52.136Z,27.10
2018-08-24T10:36:22.048Z,27.10
2018-08-24T10:38:53.769Z,27.20
2018-08-24T10:41:25.132Z,27.30
2018-08-24T10:43:54.976Z,27.30
2018-08-24T10:46:24.895Z,27.40
2018-08-24T10:48:55.205Z,27.20
2018-08-24T10:51:25.104Z,27.30
2018-08-24T10:53:55.270Z,27.10
2018-08-24T10:56:25.016Z,27.10
2018-08-24T10:58:55.636Z,27.20
2018-08-24T11:01:26.678Z,27.30
2018-08-24T11:03:57.229Z,27.20
2018-08-24T11:06:28.113Z,27.40
2018-08-24T11:08:58.579Z,27.30
2018-08-24T11:11:29.066Z,27.30
2018-08-24T11:13:59.643Z,27.30
2018-08-24T11:16:30.022Z,27.30
2018-08-24T11:19:00.435Z,27.20
2018-08-24T11:21:31.103Z,27.00
2018-08-24T11:24:01.932Z,27.00
2018-08-24T11:26:32.282Z,27.00
2018-08-24T11:29:02.734Z,27.00
2018-08-24T11:31:33.080Z,27.00
2018-08-24T11:34:03.554Z,27.20
2018-08-24T11:36:33.875Z,27.00
2018-08-24T11:39:05.241Z,27.20
2018-08-24T11:41:35.693Z,27.20
2018-08-24T11:44:06.741Z,27.00
2018-08-24T11:46:37.390Z,27.00
2018-08-24T11:49:08.076Z,27.00
2018-08-24T11:51:38.892Z,26.90
2018-08-24T11:54:09.572Z,26.80
2018-08-24T11:56:40.278Z,26.80
2018-08-24T11:59:10.670Z,26.80
2018-08-24T12:01:41.390Z,26.70
2018-08-24T12:04:11.801Z,26.80
2018-08-24T12:06:42.581Z,26.80
2018-08-24T12:09:13.294Z,26.80
2018-08-24T12:11:43.962Z,26.80
2018-08-24T12:14:14.680Z,26.80
2018-08-24T12:16:45.725Z,26.80
2018-08-24T12:19:17.454Z,26.80
2018-08-24T12:21:48.434Z,26.80
2018-08-24T12:24:18.894Z,26.80
2018-08-24T12:26:49.233Z,26.90
2018-08-24T12:29:19.963Z,26.70
2018-08-24T12:31:50.679Z,26.80
2018-08-24T12:34:22.039Z,26.70
2018-08-24T12:36:52.761Z,26.60
2018-08-24T12:39:24.124Z,26.50
2018-08-24T12:41:54.847Z,26.30
2018-08-24T12:44:25.238Z,26.30
2018-08-24T12:46:56.662Z,26.30
2018-08-24T12:49:31.806Z,26.40
2018-08-24T12:52:02.577Z,26.50
2018-08-24T12:54:33.248Z,26.50
2018-08-24T12:57:04.279Z,26.40
2018-08-24T12:59:35.463Z,26.40
2018-08-24T13:02:06.420Z,26.20
2018-08-24T13:04:37.407Z,26.30
2018-08-24T13:07:08.174Z,26.30
2018-08-24T13:09:38.836Z,26.30
2018-08-24T13:12:09.554Z,26.30
2018-08-24T13:14:40.098Z,26.60
2018-08-24T13:17:11.948Z,26.90
2018-08-24T13:19:41.719Z,27.10
2018-08-24T13:22:11.536Z,27.10
2018-08-24T13:24:41.622Z,27.20
2018-08-24T13:27:11.492Z,27.40
2018-08-24T13:29:41.287Z,27.60
2018-08-24T13:32:11.354Z,27.70
2018-08-24T13:34:42.193Z,27.80
2018-08-24T13:37:12.972Z,27.90
2018-08-24T13:39:43.635Z,28.10
2018-08-24T13:42:14.352Z,28.10
2018-08-24T13:44:44.438Z,28.00
2018-08-24T13:47:15.544Z,28.00
2018-08-24T13:49:46.201Z,28.10
2018-08-24T13:52:16.278Z,28.20
2018-08-24T13:54:46.403Z,28.10
2018-08-24T13:57:17.134Z,28.20
2018-08-24T13:59:48.232Z,28.20
2018-08-24T14:02:18.845Z,28.40
2018-08-24T14:04:50.492Z,28.40
2018-08-24T14:07:21.228Z,28.70
2018-08-24T14:09:51.633Z,28.70
2018-08-24T14:12:22.360Z,28.90
2018-08-24T14:14:53.069Z,28.90
2018-08-24T14:17:24.077Z,29.10
2018-08-24T14:19:54.844Z,29.20
2018-08-24T14:22:25.551Z,28.90
2018-08-24T14:24:56.916Z,29.10
2018-08-24T14:27:27.699Z,29.30
2018-08-24T14:29:58.415Z,29.30
2018-08-24T14:32:29.408Z,29.90
2018-08-24T14:35:00.179Z,29.80
2018-08-24T14:37:30.841Z,29.80
2018-08-24T14:40:01.901Z,29.40
2018-08-24T14:42:32.010Z,29.10
2018-08-24T14:45:03.630Z,29.10
2018-08-24T14:47:34.205Z,29.00
2018-08-24T14:50:04.539Z,28.90
2018-08-24T14:52:34.596Z,28.30
2018-08-24T14:55:04.875Z,28.20
2018-08-24T14:57:34.871Z,28.10
2018-08-24T15:00:04.830Z,28.10
2018-08-24T15:02:35.151Z,28.20
2018-08-24T15:05:06.015Z,28.00
2018-08-24T15:12:36.570Z,27.60
2018-08-24T15:15:06.344Z,27.60
2018-08-24T15:17:36.210Z,27.60
2018-08-24T15:20:06.942Z,27.70
2018-08-24T15:22:37.456Z,27.70
2018-08-24T15:25:07.861Z,27.60
2018-08-24T15:27:38.665Z,27.50
2018-08-24T15:30:08.625Z,27.30
2018-08-24T15:32:38.926Z,27.30
2018-08-24T15:35:09.459Z,27.00
2018-08-24T15:37:41.601Z,26.60
2018-08-24T15:40:11.484Z,26.30
2018-08-24T15:42:41.419Z,26.20
2018-08-24T15:45:11.915Z,26.00
2018-08-24T15:47:42.269Z,25.80
2018-08-24T15:50:12.953Z,25.20
2018-08-24T15:52:44.316Z,25.40
2018-08-24T15:55:15.295Z,25.20
2018-08-24T15:57:45.702Z,24.90
2018-08-24T16:00:16.481Z,24.60
2018-08-24T16:02:46.825Z,24.50
2018-08-24T16:07:47.674Z,24.50
2018-08-24T16:10:18.838Z,24.50
2018-08-24T16:22:53.787Z,24.40
2018-08-24T16:27:54.900Z,23.90
2018-08-24T16:30:25.307Z,23.80
2018-08-24T16:32:56.049Z,23.80
2018-08-24T16:35:27.061Z,23.80
2018-08-24T16:37:57.832Z,23.70
2018-08-24T16:40:28.817Z,23.50
2018-08-24T16:42:59.281Z,23.60
2018-08-24T16:45:30.268Z,23.60
2018-08-24T16:48:01.119Z,23.60
2018-08-24T16:50:31.761Z,23.70
2018-08-24T16:53:03.386Z,23.60
2018-08-24T16:55:34.066Z,23.70
2018-08-24T16:58:04.963Z,23.70
2018-08-24T17:00:35.875Z,23.70
2018-08-24T17:03:06.318Z,23.70
2018-08-24T17:05:36.998Z,23.60
2018-08-24T17:08:08.349Z,23.70
2018-08-24T17:10:39.391Z,23.60
2018-08-24T17:13:10.108Z,23.60
2018-08-24T17:15:40.943Z,23.60
2018-08-24T17:18:11.909Z,23.50
2018-08-24T17:20:43.270Z,23.50
2018-08-24T17:23:14.469Z,23.50
2018-08-24T17:25:44.909Z,23.40
2018-08-24T17:28:15.949Z,23.30
2018-08-24T17:30:46.198Z,23.40
2018-08-24T17:33:17.522Z,23.30
2018-08-24T17:35:47.973Z,23.40
2018-08-24T17:38:19.215Z,23.40
2018-08-24T17:40:50.001Z,23.40
2018-08-24T17:43:20.673Z,23.40
2018-08-24T17:45:51.759Z,23.40
2018-08-24T17:48:22.803Z,23.40
2018-08-24T17:50:54.159Z,23.40
2018-08-24T17:53:25.199Z,23.30
2018-08-24T17:55:56.566Z,23.30
2018-08-24T17:58:27.287Z,23.30
2018-08-24T18:00:57.998Z,23.30
2018-08-24T18:03:28.719Z,23.30
2018-08-24T18:05:58.799Z,23.40
2018-08-24T18:08:29.142Z,23.30
2018-08-24T18:10:59.868Z,23.10
2018-08-24T18:13:30.962Z,22.90
2018-08-24T18:16:01.951Z,22.90
2018-08-24T18:18:32.718Z,22.80
2018-08-24T18:21:02.800Z,22.70
2018-08-24T18:23:33.468Z,22.70
2018-08-24T18:26:04.510Z,22.60
2018-08-24T18:28:34.639Z,22.50
2018-08-24T18:31:04.928Z,22.40
2018-08-24T18:33:35.379Z,22.50
2018-08-24T18:36:05.732Z,22.40
2018-08-24T18:38:36.146Z,22.60
2018-08-24T18:41:06.858Z,22.30
2018-08-24T18:43:37.240Z,22.50
2018-08-24T18:46:08.600Z,22.50
2018-08-24T18:48:39.328Z,22.50
2018-08-24T18:51:09.771Z,22.60
2018-08-24T18:53:43.939Z,22.60
2018-08-24T18:56:16.716Z,22.70
2018-08-24T18:58:52.525Z,22.60
2018-08-24T19:01:26.651Z,22.50
2018-08-24T19:03:59.113Z,22.30
2018-08-24T19:06:35.484Z,22.20
2018-08-24T19:09:08.262Z,22.20
2018-08-24T19:11:43.642Z,22.20
2018-08-24T19:14:18.500Z,22.20
2018-08-24T19:19:27.075Z,22.40
2018-08-24T19:22:00.770Z,22.20
2018-08-24T19:24:34.588Z,22.20
2018-08-24T19:27:06.939Z,22.20
2018-08-24T19:29:42.901Z,22.00
2018-08-24T19:32:15.270Z,22.00
2018-08-24T19:34:47.220Z,22.10
2018-08-24T19:37:17.832Z,22.00
2018-08-24T19:39:55.277Z,22.10
2018-08-24T19:42:28.425Z,22.10
2018-08-24T19:45:01.140Z,22.20
2018-08-24T19:47:37.045Z,22.20
2018-08-24T19:50:10.837Z,22.20
2018-08-24T19:52:42.213Z,22.20
2018-08-24T19:55:14.101Z,22.20
2018-08-24T19:57:51.998Z,22.30
2018-08-24T20:00:24.091Z,22.20
2018-08-24T20:02:55.582Z,22.00
2018-08-24T20:05:28.692Z,22.00
2018-08-24T20:09:06.340Z,21.90
2018-08-24T20:11:38.668Z,21.80
2018-08-24T20:14:12.264Z,21.50
2018-08-24T20:16:49.755Z,21.50
2018-08-24T20:19:21.537Z,21.50
2018-08-24T20:21:52.887Z,21.50
2018-08-24T20:26:52.195Z,21.50
2018-08-24T20:29:23.167Z,21.80
2018-08-24T20:31:53.607Z,21.70
2018-08-24T20:34:24.347Z,21.60
2018-08-24T20:36:55.377Z,21.50
2018-08-24T20:39:25.873Z,21.50
2018-08-24T20:41:57.198Z,21.50
2018-08-24T20:44:28.502Z,21.50
2018-08-24T20:46:58.949Z,21.60
2018-08-24T20:49:30.379Z,21.50
2018-08-24T20:52:01.942Z,21.50
2018-08-24T20:54:33.302Z,21.40
2018-08-24T20:57:04.037Z,21.20
2018-08-24T20:59:35.080Z,21.40
2018-08-24T21:02:06.093Z,21.40
2018-08-24T21:04:37.461Z,21.30
2018-08-24T21:07:09.130Z,21.20
2018-08-24T21:09:39.556Z,21.30
2018-08-24T21:12:10.315Z,21.40
2018-08-24T21:14:40.941Z,21.10
2018-08-24T21:19:41.760Z,21.10
2018-08-24T21:22:13.161Z,20.90
2018-08-24T21:44:43.269Z,20.90
2018-08-24T21:59:42.888Z,21.00
2018-08-24T22:04:43.595Z,21.10
2018-08-24T22:07:14.894Z,20.80
2018-08-24T22:09:46.255Z,20.70
2018-08-24T22:12:18.307Z,20.40
2018-08-24T22:14:50.310Z,20.70
2018-08-24T22:17:21.673Z,20.50
2018-08-24T22:19:51.701Z,20.50
2018-08-24T22:22:22.102Z,20.60
2018-08-24T22:24:52.814Z,20.70
2018-08-24T22:27:23.855Z,20.70
2018-08-24T22:29:54.980Z,20.70
2018-08-24T22:32:25.988Z,20.50
2018-08-24T22:34:56.333Z,20.60
2018-08-24T22:47:26.741Z,20.30
2018-08-24T22:57:26.795Z,20.20
2018-08-24T23:02:27.594Z,20.40
2018-08-24T23:09:58.852Z,20.20
2018-08-24T23:12:30.149Z,20.10
2018-08-24T23:17:30.568Z,20.20
2018-08-24T23:30:02.305Z,19.70
2018-08-24T23:32:34.314Z,19.60
2018-08-24T23:35:04.626Z,19.60
2018-08-24T23:37:35.768Z,19.60
2018-08-24T23:40:06.294Z,19.50
2018-08-24T23:45:07.528Z,19.70
2018-08-24T23:50:09.347Z,19.60
2018-08-24T23:52:39.698Z,19.50
2018-08-24T23:55:10.465Z,19.60
2018-08-24T23:57:40.809Z,19.60
